Portada
METAR-TAF:

METAR-TAF

Aeroports :

Rodés, França

latitud: 44-24N, longitud: 002-29E, altitud: 581 m

Observació

L'informe es va fer fa 19 minuts, a les 19:30 UTC
Vent 1 kt del Sud-Oest
Temperatura 23°C
Humitat 50%
Pressió 1019 hPa
Visibilitat 10 km o més
sense núvols per sota de 1500 mi sense presència de cumulonimbus.

METAR: LFCR 251930Z AUTO 22001KT CAVOK 23/12 Q1019 NOSIG

Hora: 21:49 (19:49 UTC)

Pronòstic

L'informe es va fer fa 2 hores i 49 minuts, a les 17:00 UTC
Pronòstic vàlid del 25 a les 18 UTC al 26 a les 18 UTC
Vent 5 kt del Oest
Visibilitat 10 km o més
sense núvols per sota de 1500 mi sense presència de cumulonimbus.
Evolucionant progressivament
l' 25 a les 21 UTC al 25 a les 24 UTC
Vent 6 kt del Sud-Est

TAF: LFCR 251700Z 2518/2618 28005KT CAVOK BECMG 2521/2524 14006KT

Observacions i pronòstics meteorològics de més de 4000 aeroports (METAR i TAF).

Les estacions disponibles són els punts grocs i vermells al mapa.

Posi el ratolí al punt desitjat per veure el nom de l'estació.

Feu clic per veure les observacions i els pronòstics meteorològics.

Per canviar el mapa: feu clic els botons verds amb una creu de color negre per apropar; al botó verd amb un guió per allunyar la imatge; o en les fletxes verdes per a mapes adjacents.


METAR-TAF: